Wetterdaten: Woche 12.04.10 - 18.04.10 (KW15)
Datum Zeit Temp. Innen Temp. Aussen UV X Diff Temp. Feuchte Inne Feuchte Auss Sonnenschein Luftdruck Regen ab 0,1 Wind Sonnenschein Windben
12.04.2010 00:00 15,0 C 5,6 C 0,0 UV-I 0,0 C 50 % 83 % 0 % 1024,8 hPa 0,0 l/m 2,1 km/h (1 Bft) 0,00 h 3,8 km/h (1 Bft)
12.04.2010 01:00 15,0 C 5,3 C 0,0 UV-I 0,0 C 50 % 84 % 0 % 1024,8 hPa 0,0 l/m 0,9 km/h (0 Bft) 0,00 h 2,1 km/h (1 Bft)
12.04.2010 02:00 14,9 C 4,6 C 0,0 UV-I 0,0 C 50 % 85 % 0 % 1024,6 hPa 0,0 l/m 4,3 km/h (1 Bft) 0,00 h 5,7 km/h (1 Bft)
12.04.2010 03:00 14,8 C 3,8 C 0,0 UV-I 0,0 C 50 % 86 % 0 % 1023,8 hPa 0,0 l/m 2,5 km/h (1 Bft) 0,00 h 2,9 km/h (1 Bft)
12.04.2010 04:00 14,6 C 3,5 C 0,0 UV-I 0,0 C 50 % 88 % 0 % 1023,2 hPa 0,0 l/m 3,2 km/h (1 Bft) 0,00 h 4,2 km/h (1 Bft)
12.04.2010 05:00 14,6 C 3,5 C 0,0 UV-I 0,0 C 50 % 90 % 0 % 1022,7 hPa 0,0 l/m 3,5 km/h (1 Bft) 0,00 h 4,4 km/h (1 Bft)
12.04.2010 06:00 14,4 C 3,8 C 0,0 UV-I 0,0 C 51 % 91 % 0 % 1022,2 hPa 0,0 l/m 4,0 km/h (1 Bft) 0,00 h 5,1 km/h (1 Bft)
12.04.2010 07:00 14,6 C 4,8 C 0,0 UV-I 0,1 C 51 % 91 % 4 % 1022,1 hPa 0,0 l/m 6,2 km/h (2 Bft) 0,03 h 7,8 km/h (2 Bft)
12.04.2010 08:00 14,6 C 5,4 C 0,0 UV-I 0,2 C 52 % 89 % 6 % 1022,1 hPa 0,0 l/m 8,4 km/h (2 Bft) 0,00 h 11,5 km/h (2 Bft)
12.04.2010 09:00 14,8 C 6,0 C 0,5 UV-I 0,8 C 52 % 87 % 22 % 1022,1 hPa 0,0 l/m 7,4 km/h (2 Bft) 0,00 h 8,3 km/h (2 Bft)
12.04.2010 10:00 14,8 C 7,2 C 1,2 UV-I 3,3 C 52 % 83 % 83 % 1021,9 hPa 0,0 l/m 8,2 km/h (2 Bft) 0,47 h 12,5 km/h (3 Bft)
12.04.2010 11:00 15,0 C 9,5 C 2,8 UV-I 5,0 C 51 % 74 % 98 % 1021,7 hPa 0,0 l/m 7,8 km/h (2 Bft) 0,93 h 10,1 km/h (2 Bft)
12.04.2010 12:00 15,3 C 11,4 C 5,9 UV-I 5,6 C 50 % 67 % 100 % 1021,4 hPa 0,0 l/m 6,8 km/h (2 Bft) 1,00 h 8,5 km/h (2 Bft)
12.04.2010 13:00 15,8 C 13,3 C 5,6 UV-I 4,6 C 49 % 61 % 100 % 1021,0 hPa 0,0 l/m 8,2 km/h (2 Bft) 0,93 h 10,8 km/h (2 Bft)
12.04.2010 14:00 16,5 C 14,1 C 3,8 UV-I 3,1 C 47 % 57 % 80 % 1021,4 hPa 0,0 l/m 8,3 km/h (2 Bft) 0,53 h 10,9 km/h (2 Bft)
12.04.2010 15:00 16,8 C 15,0 C 3,7 UV-I 3,0 C 47 % 54 % 81 % 1020,8 hPa 0,0 l/m 6,5 km/h (2 Bft) 0,47 h 8,4 km/h (2 Bft)
12.04.2010 16:00 16,8 C 14,3 C 0,1 UV-I 0,3 C 46 % 56 % 9 % 1020,2 hPa 0,0 l/m 4,5 km/h (1 Bft) 0,00 h 5,9 km/h (2 Bft)
12.04.2010 17:00 16,4 C 13,1 C 0,3 UV-I 0,3 C 48 % 60 % 7 % 1019,6 hPa 0,0 l/m 4,0 km/h (1 Bft) 0,00 h 5,9 km/h (2 Bft)
12.04.2010 18:00 16,3 C 12,7 C 0,2 UV-I 0,3 C 48 % 61 % 9 % 1019,7 hPa 0,0 l/m 4,3 km/h (1 Bft) 0,00 h 6,7 km/h (2 Bft)
12.04.2010 19:00 16,5 C 12,5 C 0,0 UV-I 0,2 C 48 % 62 % 5 % 1019,9 hPa 0,0 l/m 2,7 km/h (1 Bft) 0,00 h 3,4 km/h (1 Bft)
12.04.2010 20:00 16,4 C 12,0 C 0,0 UV-I 0,0 C 48 % 65 % 0 % 1019,8 hPa 0,0 l/m 0,2 km/h (0 Bft) 0,00 h 0,2 km/h (0 Bft)
12.04.2010 21:00 16,1 C 10,9 C 0,0 UV-I 0,0 C 49 % 70 % 0 % 1019,9 hPa 0,0 l/m 0,0 km/h (0 Bft) 0,00 h 0,2 km/h (0 Bft)
12.04.2010 22:00 16,0 C 10,5 C 0,0 UV-I 0,0 C 50 % 70 % 0 % 1019,9 hPa 0,0 l/m 1,9 km/h (1 Bft) 0,00 h 3,2 km/h (1 Bft)
12.04.2010 23:00 15,8 C 10,8 C 0,0 UV-I 0,0 C 50 % 71 % 0 % 1019,7 hPa 0,1 l/m 2,8 km/h (1 Bft) 0,00 h 3,6 km/h (1 Bft)
13.04.2010 00:00 15,9 C 10,2 C 0,0 UV-I 0,0 C 51 % 76 % 0 % 1019,6 hPa 0,0 l/m 0,8 km/h (0 Bft) 0,00 h 1,9 km/h (1 Bft)
13.04.2010 01:00 15,8 C 9,9 C 0,0 UV-I 0,0 C 51 % 74 % 0 % 1019,5 hPa 0,0 l/m 1,8 km/h (1 Bft) 0,00 h 3,7 km/h (1 Bft)
13.04.2010 02:00 15,8 C 9,1 C 0,0 UV-I 0,0 C 51 % 76 % 0 % 1019,2 hPa 0,0 l/m 0,8 km/h (0 Bft) 0,00 h 1,5 km/h (1 Bft)
13.04.2010 03:00 15,6 C 8,6 C 0,0 UV-I 0,0 C 51 % 77 % 0 % 1019,1 hPa 0,0 l/m 4,7 km/h (1 Bft) 0,00 h 7,4 km/h (2 Bft)
13.04.2010 04:00 15,6 C 7,6 C 0,0 UV-I 0,0 C 51 % 79 % 0 % 1018,8 hPa 0,0 l/m 1,8 km/h (1 Bft) 0,00 h 3,4 km/h (1 Bft)
13.04.2010 05:00 15,4 C 6,9 C 0,0 UV-I 0,0 C 51 % 81 % 0 % 1018,8 hPa 0,0 l/m 3,1 km/h (1 Bft) 0,00 h 4,7 km/h (1 Bft)
13.04.2010 06:00 15,2 C 6,0 C 0,0 UV-I 0,0 C 52 % 83 % 0 % 1018,5 hPa 0,0 l/m 3,5 km/h (1 Bft) 0,00 h 5,1 km/h (1 Bft)
13.04.2010 07:00 15,2 C 5,3 C 0,0 UV-I 0,0 C 52 % 85 % 0 % 1018,8 hPa 0,0 l/m 2,0 km/h (1 Bft) 0,00 h 3,9 km/h (1 Bft)
13.04.2010 08:00 15,1 C 5,6 C 0,0 UV-I 0,0 C 52 % 87 % 1 % 1019,1 hPa 0,0 l/m 5,4 km/h (1 Bft) 0,00 h 8,3 km/h (2 Bft)
13.04.2010 09:00 15,2 C 6,7 C 0,3 UV-I 1,1 C 53 % 86 % 29 % 1019,0 hPa 0,0 l/m 6,6 km/h (2 Bft) 0,07 h 9,8 km/h (2 Bft)
13.04.2010 10:00 15,3 C 8,9 C 1,2 UV-I 5,4 C 53 % 81 % 100 % 1019,1 hPa 0,0 l/m 8,6 km/h (2 Bft) 0,70 h 13,5 km/h (3 Bft)
13.04.2010 11:00 15,5 C 10,6 C 3,2 UV-I 5,6 C 53 % 75 % 100 % 1019,2 hPa 0,0 l/m 8,6 km/h (2 Bft) 0,80 h 12,0 km/h (2 Bft)
13.04.2010 12:00 15,8 C 13,5 C 6,1 UV-I 5,7 C 52 % 66 % 100 % 1019,0 hPa 0,0 l/m 9,5 km/h (2 Bft) 0,90 h 13,1 km/h (3 Bft)
13.04.2010 13:00 16,4 C 16,0 C 7,0 UV-I 5,4 C 51 % 56 % 100 % 1018,6 hPa 0,0 l/m 10,1 km/h (2 Bft) 0,80 h 11,9 km/h (2 Bft)
13.04.2010 14:00 17,7 C 17,8 C 5,8 UV-I 4,4 C 48 % 48 % 100 % 1020,0 hPa 0,0 l/m 7,8 km/h (2 Bft) 0,77 h 9,9 km/h (2 Bft)
13.04.2010 15:00 18,4 C 18,5 C 5,2 UV-I 3,5 C 45 % 43 % 90 % 1019,2 hPa 0,0 l/m 8,0 km/h (2 Bft) 0,53 h 9,8 km/h (2 Bft)
13.04.2010 16:00 18,8 C 18,6 C 5,1 UV-I 3,7 C 44 % 40 % 95 % 1018,4 hPa 0,0 l/m 8,4 km/h (2 Bft) 0,60 h 10,1 km/h (2 Bft)
13.04.2010 17:00 18,9 C 18,0 C 1,4 UV-I 1,4 C 43 % 39 % 40 % 1018,0 hPa 0,0 l/m 8,5 km/h (2 Bft) 0,00 h 11,7 km/h (2 Bft)
13.04.2010 18:00 18,5 C 16,6 C 0,6 UV-I 0,1 C 43 % 42 % 3 % 1017,2 hPa 0,0 l/m 10,3 km/h (2 Bft) 0,00 h 12,1 km/h (2 Bft)
13.04.2010 19:00 18,4 C 15,4 C 0,0 UV-I 0,0 C 43 % 45 % 0 % 1017,0 hPa 0,0 l/m 9,0 km/h (2 Bft) 0,00 h 10,3 km/h (2 Bft)
13.04.2010 20:00 18,0 C 14,1 C 0,0 UV-I 0,0 C 44 % 48 % 0 % 1016,6 hPa 0,0 l/m 7,9 km/h (2 Bft) 0,00 h 9,1 km/h (2 Bft)
13.04.2010 21:00 17,5 C 12,4 C 0,0 UV-I 0,0 C 45 % 56 % 0 % 1016,9 hPa 0,0 l/m 4,9 km/h (1 Bft) 0,00 h 5,8 km/h (2 Bft)
13.04.2010 22:00 17,1 C 10,8 C 0,0 UV-I 0,0 C 46 % 62 % 0 % 1017,2 hPa 0,0 l/m 4,4 km/h (1 Bft) 0,00 h 6,0 km/h (2 Bft)
13.04.2010 23:00 16,8 C 9,9 C 0,0 UV-I 0,0 C 47 % 67 % 0 % 1017,2 hPa 0,0 l/m 5,9 km/h (2 Bft) 0,00 h 7,4 km/h (2 Bft)
14.04.2010 00:00 16,6 C 9,1 C 0,0 UV-I 0,0 C 48 % 70 % 0 % 1017,3 hPa 0,0 l/m 6,2 km/h (2 Bft) 0,00 h 7,5 km/h (2 Bft)
14.04.2010 01:00 16,4 C 8,2 C 0,0 UV-I 0,0 C 48 % 74 % 0 % 1017,3 hPa 0,0 l/m 4,9 km/h (1 Bft) 0,00 h 6,2 km/h (2 Bft)
14.04.2010 02:00 16,3 C 7,4 C 0,0 UV-I 0,0 C 49 % 77 % 0 % 1017,2 hPa 0,0 l/m 4,7 km/h (1 Bft) 0,00 h 6,1 km/h (2 Bft)
14.04.2010 03:00 16,2 C 6,7 C 0,0 UV-I 0,0 C 49 % 78 % 0 % 1017,1 hPa 0,0 l/m 4,2 km/h (1 Bft) 0,00 h 5,6 km/h (1 Bft)
14.04.2010 04:00 16,0 C 5,8 C 0,0 UV-I 0,0 C 49 % 80 % 0 % 1017,0 hPa 0,0 l/m 4,4 km/h (1 Bft) 0,00 h 6,6 km/h (2 Bft)
14.04.2010 05:00 15,9 C 5,1 C 0,0 UV-I 0,0 C 49 % 83 % 0 % 1017,1 hPa 0,0 l/m 3,8 km/h (1 Bft) 0,00 h 4,8 km/h (1 Bft)
14.04.2010 06:00 15,7 C 4,5 C 0,0 UV-I 0,0 C 49 % 85 % 0 % 1016,9 hPa 0,0 l/m 2,0 km/h (1 Bft) 0,00 h 2,6 km/h (1 Bft)
14.04.2010 07:00 15,4 C 4,0 C 0,0 UV-I 0,0 C 50 % 88 % 0 % 1017,1 hPa 0,0 l/m 2,3 km/h (1 Bft) 0,00 h 4,1 km/h (1 Bft)
14.04.2010 08:00 15,3 C 4,4 C 0,1 UV-I 0,2 C 50 % 89 % 5 % 1017,3 hPa 0,0 l/m 3,6 km/h (1 Bft) 0,00 h 4,6 km/h (1 Bft)
14.04.2010 09:00 15,4 C 5,7 C 0,6 UV-I 1,7 C 51 % 89 % 47 % 1017,7 hPa 0,0 l/m 5,5 km/h (1 Bft) 0,10 h 8,3 km/h (2 Bft)
14.04.2010 10:00 15,5 C 7,5 C 1,2 UV-I 4,6 C 51 % 86 % 99 % 1017,7 hPa 0,0 l/m 5,5 km/h (1 Bft) 0,80 h 7,1 km/h (2 Bft)
14.04.2010 11:00 15,8 C 9,5 C 2,5 UV-I 4,3 C 51 % 80 % 92 % 1017,9 hPa 0,0 l/m 6,2 km/h (2 Bft) 0,57 h 8,0 km/h (2 Bft)
14.04.2010 12:00 16,0 C 12,0 C 6,2 UV-I 6,6 C 51 % 71 % 100 % 1017,8 hPa 0,0 l/m 7,8 km/h (2 Bft) 0,97 h 9,1 km/h (2 Bft)
14.04.2010 13:00 16,7 C 15,9 C 6,6 UV-I 6,8 C 49 % 51 % 100 % 1017,8 hPa 0,0 l/m 5,0 km/h (1 Bft) 0,97 h 6,7 km/h (2 Bft)
14.04.2010 14:00 17,7 C 16,7 C 4,4 UV-I 3,0 C 46 % 44 % 81 % 1018,6 hPa 0,0 l/m 5,9 km/h (2 Bft) 0,50 h 10,1 km/h (2 Bft)
14.04.2010 15:00 18,0 C 16,1 C 3,6 UV-I 1,9 C 45 % 43 % 51 % 1018,0 hPa 0,0 l/m 6,6 km/h (2 Bft) 0,30 h 9,0 km/h (2 Bft)
14.04.2010 16:00 18,2 C 16,4 C 2,1 UV-I 1,7 C 44 % 41 % 47 % 1017,7 hPa 0,0 l/m 3,5 km/h (1 Bft) 0,10 h 6,7 km/h (2 Bft)
14.04.2010 17:00 18,2 C 16,1 C 1,3 UV-I 1,9 C 44 % 40 % 49 % 1017,2 hPa 0,0 l/m 2,9 km/h (1 Bft) 0,27 h 5,1 km/h (1 Bft)
14.04.2010 18:00 18,1 C 15,7 C 0,4 UV-I 1,3 C 43 % 41 % 31 % 1016,9 hPa 0,0 l/m 3,4 km/h (1 Bft) 0,25 h 5,7 km/h (1 Bft)
14.04.2010 19:00 18,2 C 14,8 C 0,0 UV-I 0,0 C 42 % 44 % 0 % 1017,5 hPa 0,0 l/m 1,0 km/h (0 Bft) 0,00 h 1,6 km/h (1 Bft)
14.04.2010 20:00 17,7 C 13,1 C 0,0 UV-I 0,0 C 43 % 49 % 0 % 1017,2 hPa 0,0 l/m 0,1 km/h (0 Bft) 0,00 h 0,1 km/h (0 Bft)
14.04.2010 21:00 17,3 C 11,3 C 0,0 UV-I 0,0 C 44 % 54 % 0 % 1017,4 hPa 0,0 l/m 0,1 km/h (0 Bft) 0,00 h 0,3 km/h (0 Bft)
14.04.2010 22:00 17,1 C 9,8 C 0,0 UV-I 0,0 C 45 % 59 % 0 % 1017,9 hPa 0,0 l/m 0,5 km/h (0 Bft) 0,00 h 0,9 km/h (0 Bft)
14.04.2010 23:00 16,8 C 8,9 C 0,0 UV-I 0,0 C 45 % 64 % 0 % 1018,2 hPa 0,0 l/m 1,5 km/h (1 Bft) 0,00 h 2,1 km/h (1 Bft)
15.04.2010 00:00 16,5 C 8,9 C 0,0 UV-I 0,0 C 46 % 66 % 0 % 1017,9 hPa 0,0 l/m 1,0 km/h (0 Bft) 0,00 h 1,7 km/h (1 Bft)
15.04.2010 01:00 16,4 C 8,9 C 0,0 UV-I 0,0 C 46 % 68 % 0 % 1018,2 hPa 0,0 l/m 0,3 km/h (0 Bft) 0,00 h 1,0 km/h (0 Bft)
15.04.2010 02:00 16,4 C 8,0 C 0,0 UV-I 0,0 C 47 % 71 % 0 % 1018,3 hPa 0,0 l/m 0,4 km/h (0 Bft) 0,00 h 0,4 km/h (0 Bft)
15.04.2010 03:00 16,3 C 6,7 C 0,0 UV-I 0,0 C 47 % 75 % 0 % 1018,3 hPa 0,0 l/m 0,1 km/h (0 Bft) 0,00 h 0,5 km/h (0 Bft)
15.04.2010 04:00 16,1 C 5,5 C 0,0 UV-I 0,0 C 47 % 78 % 0 % 1018,2 hPa 0,0 l/m 0,0 km/h (0 Bft) 0,00 h 0,0 km/h (0 Bft)
15.04.2010 05:00 15,9 C 4,6 C 0,0 UV-I 0,0 C 47 % 80 % 0 % 1018,0 hPa 0,0 l/m 0,0 km/h (0 Bft) 0,00 h 0,2 km/h (0 Bft)
15.04.2010 06:00 15,7 C 4,4 C 0,0 UV-I 0,1 C 48 % 83 % 0 % 1018,1 hPa 0,0 l/m 0,1 km/h (0 Bft) 0,00 h 0,5 km/h (0 Bft)
15.04.2010 07:00 15,6 C 5,1 C 0,0 UV-I 0,2 C 48 % 82 % 6 % 1018,5 hPa 0,0 l/m 2,6 km/h (1 Bft) 0,00 h 3,9 km/h (1 Bft)
15.04.2010 08:00 15,6 C 5,8 C 0,3 UV-I 0,6 C 48 % 80 % 16 % 1018,6 hPa 0,0 l/m 5,3 km/h (1 Bft) 0,00 h 7,8 km/h (2 Bft)
15.04.2010 09:00 15,6 C 7,0 C 1,1 UV-I 1,2 C 49 % 76 % 33 % 1018,7 hPa 0,0 l/m 6,5 km/h (2 Bft) 0,10 h 8,3 km/h (2 Bft)
15.04.2010 10:00 15,7 C 8,6 C 1,7 UV-I 6,9 C 49 % 72 % 100 % 1019,1 hPa 0,0 l/m 5,7 km/h (1 Bft) 1,00 h 8,0 km/h (2 Bft)
15.04.2010 11:00 15,9 C 11,0 C 4,6 UV-I 7,1 C 49 % 65 % 100 % 1019,5 hPa 0,0 l/m 7,8 km/h (2 Bft) 1,00 h 10,2 km/h (2 Bft)
15.04.2010 12:00 16,2 C 13,1 C 7,8 UV-I 6,7 C 49 % 58 % 100 % 1019,7 hPa 0,0 l/m 7,5 km/h (2 Bft) 0,97 h 9,4 km/h (2 Bft)
15.04.2010 13:00 16,9 C 15,3 C 8,0 UV-I 6,0 C 49 % 51 % 100 % 1019,9 hPa 0,0 l/m 8,3 km/h (2 Bft) 0,93 h 12,1 km/h (2 Bft)
15.04.2010 14:00 18,4 C 17,2 C 8,3 UV-I 5,5 C 45 % 44 % 100 % 1021,9 hPa 0,0 l/m 7,2 km/h (2 Bft) 0,97 h 10,0 km/h (2 Bft)
15.04.2010 15:00 19,3 C 18,1 C 8,5 UV-I 4,4 C 42 % 39 % 100 % 1021,3 hPa 0,0 l/m 9,6 km/h (2 Bft) 0,90 h 13,6 km/h (3 Bft)
15.04.2010 16:00 19,7 C 18,0 C 6,7 UV-I 3,7 C 41 % 37 % 100 % 1020,3 hPa 0,0 l/m 10,9 km/h (2 Bft) 0,90 h 12,9 km/h (3 Bft)
15.04.2010 17:00 19,9 C 17,7 C 2,7 UV-I 3,5 C 40 % 36 % 95 % 1021,1 hPa 0,0 l/m 12,0 km/h (2 Bft) 0,93 h 15,0 km/h (3 Bft)
15.04.2010 18:00 19,3 C 16,4 C 0,9 UV-I 1,2 C 40 % 38 % 33 % 1020,0 hPa 0,0 l/m 11,2 km/h (2 Bft) 0,07 h 14,5 km/h (3 Bft)
15.04.2010 19:00 19,2 C 15,2 C 0,1 UV-I 0,0 C 40 % 40 % 1 % 1019,8 hPa 0,0 l/m 9,5 km/h (2 Bft) 0,00 h 11,4 km/h (2 Bft)
15.04.2010 20:00 18,6 C 13,6 C 0,0 UV-I 0,0 C 41 % 45 % 0 % 1019,5 hPa 0,0 l/m 6,2 km/h (2 Bft) 0,00 h 7,3 km/h (2 Bft)
15.04.2010 21:00 18,0 C 12,1 C 0,0 UV-I 0,0 C 42 % 51 % 0 % 1020,1 hPa 0,0 l/m 5,9 km/h (2 Bft) 0,00 h 7,7 km/h (2 Bft)
15.04.2010 22:00 17,6 C 10,9 C 0,0 UV-I 0,0 C 43 % 52 % 0 % 1020,8 hPa 0,0 l/m 6,8 km/h (2 Bft) 0,00 h 8,6 km/h (2 Bft)
15.04.2010 23:00 17,2 C 9,6 C 0,0 UV-I 0,0 C 44 % 58 % 0 % 1021,0 hPa 0,0 l/m 3,9 km/h (1 Bft) 0,00 h 5,9 km/h (2 Bft)
16.04.2010 00:00 17,0 C 8,3 C 0,0 UV-I 0,0 C 44 % 62 % 0 % 1021,4 hPa 0,0 l/m 5,1 km/h (1 Bft) 0,00 h 7,7 km/h (2 Bft)
16.04.2010 01:00 16,8 C 7,4 C 0,0 UV-I 0,0 C 45 % 65 % 0 % 1021,9 hPa 0,0 l/m 5,6 km/h (1 Bft) 0,00 h 7,2 km/h (2 Bft)
16.04.2010 02:00 16,6 C 6,7 C 0,0 UV-I 0,0 C 45 % 70 % 0 % 1021,9 hPa 0,0 l/m 4,3 km/h (1 Bft) 0,00 h 6,1 km/h (2 Bft)
16.04.2010 03:00 16,4 C 5,9 C 0,0 UV-I 0,0 C 46 % 78 % 0 % 1022,2 hPa 0,0 l/m 7,7 km/h (2 Bft) 0,00 h 11,3 km/h (2 Bft)
16.04.2010 04:00 16,3 C 5,3 C 0,0 UV-I 0,0 C 46 % 82 % 0 % 1022,7 hPa 0,0 l/m 7,9 km/h (2 Bft) 0,00 h 10,5 km/h (2 Bft)
16.04.2010 05:00 16,2 C 5,2 C 0,0 UV-I 0,0 C 46 % 83 % 0 % 1022,8 hPa 0,0 l/m 9,7 km/h (2 Bft) 0,00 h 12,4 km/h (3 Bft)
16.04.2010 06:00 15,9 C 5,2 C 0,0 UV-I 0,0 C 47 % 82 % 0 % 1022,9 hPa 0,0 l/m 7,6 km/h (2 Bft) 0,00 h 8,7 km/h (2 Bft)
16.04.2010 07:00 15,8 C 5,5 C 0,0 UV-I 0,0 C 47 % 81 % 0 % 1023,5 hPa 0,0 l/m 5,6 km/h (1 Bft) 0,00 h 7,6 km/h (2 Bft)
16.04.2010 08:00 15,8 C 6,0 C 0,4 UV-I 0,4 C 47 % 79 % 11 % 1023,8 hPa 0,0 l/m 3,2 km/h (1 Bft) 0,00 h 4,1 km/h (1 Bft)
16.04.2010 09:00 15,9 C 6,9 C 1,0 UV-I 1,2 C 47 % 76 % 35 % 1024,0 hPa 0,0 l/m 3,1 km/h (1 Bft) 0,00 h 5,0 km/h (1 Bft)
16.04.2010 10:00 16,0 C 8,0 C 1,2 UV-I 3,2 C 47 % 72 % 76 % 1024,2 hPa 0,0 l/m 6,5 km/h (2 Bft) 0,60 h 10,8 km/h (2 Bft)
16.04.2010 11:00 16,1 C 8,4 C 0,9 UV-I 0,7 C 47 % 71 % 20 % 1024,7 hPa 0,0 l/m 7,4 km/h (2 Bft) 0,00 h 8,7 km/h (2 Bft)
16.04.2010 12:00 16,2 C 8,9 C 2,2 UV-I 1,6 C 47 % 69 % 46 % 1025,0 hPa 0,0 l/m 6,6 km/h (2 Bft) 0,07 h 9,6 km/h (2 Bft)
16.04.2010 13:00 16,3 C 9,9 C 2,4 UV-I 1,8 C 46 % 63 % 52 % 1025,3 hPa 0,0 l/m 9,1 km/h (2 Bft) 0,00 h 11,9 km/h (2 Bft)
16.04.2010 14:00 16,5 C 10,7 C 2,6 UV-I 2,0 C 46 % 60 % 56 % 1025,1 hPa 0,0 l/m 8,8 km/h (2 Bft) 0,00 h 11,9 km/h (2 Bft)
16.04.2010 15:00 16,8 C 11,5 C 3,8 UV-I 2,6 C 45 % 57 % 74 % 1025,1 hPa 0,0 l/m 8,7 km/h (2 Bft) 0,40 h 10,9 km/h (2 Bft)
16.04.2010 16:00 17,6 C 12,7 C 5,1 UV-I 3,6 C 44 % 53 % 89 % 1025,0 hPa 0,0 l/m 8,7 km/h (2 Bft) 0,63 h 10,7 km/h (2 Bft)
16.04.2010 17:00 18,0 C 13,1 C 1,8 UV-I 1,7 C 43 % 52 % 46 % 1025,2 hPa 0,0 l/m 6,5 km/h (2 Bft) 0,10 h 9,8 km/h (2 Bft)
16.04.2010 18:00 17,8 C 12,8 C 0,8 UV-I 1,4 C 43 % 49 % 40 % 1024,7 hPa 0,0 l/m 8,6 km/h (2 Bft) 0,00 h 10,2 km/h (2 Bft)
16.04.2010 19:00 17,5 C 12,0 C 0,0 UV-I 0,0 C 43 % 49 % 0 % 1024,3 hPa 0,0 l/m 7,8 km/h (2 Bft) 0,00 h 9,7 km/h (2 Bft)
16.04.2010 20:00 17,0 C 10,8 C 0,0 UV-I 0,0 C 43 % 52 % 0 % 1023,9 hPa 0,0 l/m 4,7 km/h (1 Bft) 0,00 h 5,5 km/h (1 Bft)
16.04.2010 21:00 16,6 C 9,2 C 0,0 UV-I 0,0 C 44 % 57 % 0 % 1024,3 hPa 0,0 l/m 2,9 km/h (1 Bft) 0,00 h 4,4 km/h (1 Bft)
16.04.2010 22:00 16,4 C 7,8 C 0,0 UV-I 0,0 C 44 % 62 % 0 % 1024,6 hPa 0,0 l/m 3,3 km/h (1 Bft) 0,00 h 3,6 km/h (1 Bft)
16.04.2010 23:00 16,2 C 6,6 C 0,0 UV-I 0,0 C 45 % 67 % 0 % 1025,1 hPa 0,0 l/m 2,1 km/h (1 Bft) 0,00 h 2,9 km/h (1 Bft)
17.04.2010 00:00 16,0 C 5,6 C 0,0 UV-I 0,0 C 45 % 70 % 0 % 1025,0 hPa 0,0 l/m 0,7 km/h (0 Bft) 0,00 h 0,5 km/h (0 Bft)
17.04.2010 01:00 15,7 C 4,8 C 0,0 UV-I 0,0 C 46 % 74 % 0 % 1025,0 hPa 0,0 l/m 0,9 km/h (0 Bft) 0,00 h 1,1 km/h (0 Bft)
17.04.2010 02:00 15,6 C 3,6 C 0,0 UV-I 0,0 C 46 % 77 % 0 % 1025,1 hPa 0,0 l/m 0,0 km/h (0 Bft) 0,00 h 0,0 km/h (0 Bft)
17.04.2010 03:00 15,4 C 2,5 C 0,0 UV-I 0,0 C 46 % 80 % 0 % 1025,1 hPa 0,0 l/m 0,0 km/h (0 Bft) 0,00 h 0,0 km/h (0 Bft)
17.04.2010 04:00 15,2 C 1,7 C 0,0 UV-I 0,0 C 46 % 83 % 0 % 1024,5 hPa 0,0 l/m 0,0 km/h (0 Bft) 0,00 h 0,0 km/h (0 Bft)
17.04.2010 05:00 15,1 C 1,1 C 0,0 UV-I 0,0 C 46 % 85 % 0 % 1024,3 hPa 0,0 l/m 0,0 km/h (0 Bft) 0,00 h 0,0 km/h (0 Bft)
17.04.2010 06:00 14,9 C 0,6 C 0,0 UV-I 0,0 C 45 % 86 % 0 % 1024,1 hPa 0,0 l/m 0,0 km/h (0 Bft) 0,00 h 0,0 km/h (0 Bft)
17.04.2010 07:00 14,8 C 0,6 C 0,1 UV-I 0,0 C 45 % 87 % 0 % 1024,4 hPa 0,0 l/m 0,0 km/h (0 Bft) 0,00 h 0,0 km/h (0 Bft)
17.04.2010 08:00 14,8 C 1,5 C 0,6 UV-I 0,3 C 46 % 89 % 10 % 1024,0 hPa 0,0 l/m 0,0 km/h (0 Bft) 0,00 h 0,0 km/h (0 Bft)
17.04.2010 09:00 14,8 C 3,6 C 0,9 UV-I 2,6 C 46 % 88 % 61 % 1024,0 hPa 0,0 l/m 0,3 km/h (0 Bft) 0,17 h 0,7 km/h (0 Bft)
17.04.2010 10:00 15,0 C 6,6 C 1,6 UV-I 10,8 C 46 % 77 % 100 % 1023,7 hPa 0,0 l/m 1,7 km/h (1 Bft) 1,00 h 3,9 km/h (1 Bft)
17.04.2010 11:00 15,2 C 10,3 C 5,1 UV-I 9,6 C 45 % 59 % 100 % 1023,6 hPa 0,0 l/m 2,3 km/h (1 Bft) 1,00 h 3,9 km/h (1 Bft)
17.04.2010 12:00 15,5 C 13,7 C 10,5 UV-I 7,7 C 45 % 48 % 100 % 1023,2 hPa 0,0 l/m 2,7 km/h (1 Bft) 0,88 h 4,1 km/h (1 Bft)
17.04.2010 13:00 16,3 C 15,9 C 10,6 UV-I 6,8 C 44 % 40 % 100 % 1022,9 hPa 0,0 l/m 3,0 km/h (1 Bft) 1,00 h 5,0 km/h (1 Bft)
17.04.2010 14:00 17,9 C 18,0 C 11,5 UV-I 5,7 C 40 % 34 % 100 % 1025,1 hPa 0,0 l/m 3,3 km/h (1 Bft) 0,90 h 3,8 km/h (1 Bft)
17.04.2010 15:00 19,8 C 19,2 C 13,4 UV-I 5,9 C 36 % 31 % 100 % 1024,8 hPa 0,0 l/m 2,9 km/h (1 Bft) 0,97 h 5,4 km/h (1 Bft)
17.04.2010 16:00 21,7 C 20,8 C 12,2 UV-I 5,5 C 33 % 29 % 100 % 1025,2 hPa 0,0 l/m 3,1 km/h (1 Bft) 1,00 h 4,5 km/h (1 Bft)
17.04.2010 17:00 22,1 C 21,5 C 3,5 UV-I 4,8 C 32 % 27 % 100 % 1023,3 hPa 0,0 l/m 2,1 km/h (1 Bft) 0,97 h 3,1 km/h (1 Bft)
17.04.2010 18:00 20,9 C 19,7 C 0,8 UV-I 1,3 C 34 % 28 % 36 % 1020,5 hPa 0,0 l/m 1,4 km/h (1 Bft) 0,10 h 1,9 km/h (1 Bft)
17.04.2010 19:00 20,3 C 17,6 C 0,2 UV-I 0,0 C 36 % 32 % 0 % 1019,4 hPa 0,0 l/m 0,4 km/h (0 Bft) 0,00 h 0,4 km/h (0 Bft)
17.04.2010 20:00 19,5 C 15,4 C 0,0 UV-I 0,0 C 37 % 39 % 0 % 1018,4 hPa 0,0 l/m 0,3 km/h (0 Bft) 0,00 h 0,5 km/h (0 Bft)
17.04.2010 21:00 18,7 C 12,7 C 0,0 UV-I 0,0 C 38 % 49 % 0 % 1018,4 hPa 0,0 l/m 0,0 km/h (0 Bft) 0,00 h 0,0 km/h (0 Bft)
17.04.2010 22:00 18,1 C 10,4 C 0,0 UV-I 0,0 C 40 % 58 % 0 % 1018,1 hPa 0,0 l/m 0,0 km/h (0 Bft) 0,00 h 0,0 km/h (0 Bft)
17.04.2010 23:00 17,6 C 8,6 C 0,0 UV-I 0,0 C 41 % 66 % 0 % 1017,8 hPa 0,0 l/m 0,0 km/h (0 Bft) 0,00 h 0,0 km/h (0 Bft)
18.04.2010 00:00 17,2 C 7,1 C 0,0 UV-I 0,0 C 42 % 70 % 0 % 1017,4 hPa 0,0 l/m 0,0 km/h (0 Bft) 0,00 h 0,0 km/h (0 Bft)
18.04.2010 01:00 16,9 C 5,8 C 0,0 UV-I 0,0 C 43 % 74 % 0 % 1017,1 hPa 0,0 l/m 0,0 km/h (0 Bft) 0,00 h 0,0 km/h (0 Bft)
18.04.2010 02:00 16,7 C 4,9 C 0,0 UV-I 0,0 C 43 % 77 % 0 % 1016,6 hPa 0,0 l/m 0,0 km/h (0 Bft) 0,00 h 0,0 km/h (0 Bft)
18.04.2010 03:00 16,6 C 4,0 C 0,0 UV-I 0,0 C 43 % 80 % 0 % 1016,1 hPa 0,0 l/m 0,0 km/h (0 Bft) 0,00 h 0,0 km/h (0 Bft)
18.04.2010 04:00 16,4 C 3,5 C 0,0 UV-I 0,0 C 44 % 82 % 0 % 1015,6 hPa 0,0 l/m 0,2 km/h (0 Bft) 0,00 h 0,3 km/h (0 Bft)
18.04.2010 05:00 16,2 C 3,1 C 0,0 UV-I 0,0 C 44 % 83 % 0 % 1015,1 hPa 0,0 l/m 0,0 km/h (0 Bft) 0,00 h 0,0 km/h (0 Bft)
18.04.2010 06:00 16,0 C 2,5 C 0,0 UV-I 0,0 C 44 % 84 % 0 % 1014,8 hPa 0,0 l/m 0,0 km/h (0 Bft) 0,00 h 0,0 km/h (0 Bft)
18.04.2010 07:00 15,8 C 2,2 C 0,0 UV-I 0,0 C 44 % 85 % 0 % 1014,6 hPa 0,0 l/m 0,0 km/h (0 Bft) 0,00 h 0,0 km/h (0 Bft)
18.04.2010 08:00 15,7 C 3,5 C 0,3 UV-I 1,8 C 45 % 86 % 53 % 1014,9 hPa 0,0 l/m 3,1 km/h (1 Bft) 0,00 h 5,8 km/h (2 Bft)
18.04.2010 09:00 15,9 C 6,4 C 1,0 UV-I 3,5 C 44 % 79 % 83 % 1014,5 hPa 0,0 l/m 3,5 km/h (1 Bft) 0,27 h 4,3 km/h (1 Bft)
18.04.2010 10:00 16,0 C 10,2 C 1,7 UV-I 10,5 C 45 % 71 % 100 % 1014,5 hPa 0,0 l/m 1,9 km/h (1 Bft) 0,97 h 3,0 km/h (1 Bft)
18.04.2010 11:00 16,3 C 14,9 C 5,9 UV-I 9,2 C 45 % 55 % 100 % 1014,7 hPa 0,0 l/m 2,5 km/h (1 Bft) 1,00 h 3,2 km/h (1 Bft)
18.04.2010 12:00 16,7 C 18,5 C 10,4 UV-I 7,8 C 44 % 40 % 100 % 1014,2 hPa 0,0 l/m 2,6 km/h (1 Bft) 0,90 h 3,8 km/h (1 Bft)
18.04.2010 13:00 17,7 C 20,6 C 11,2 UV-I 6,4 C 43 % 34 % 100 % 1013,9 hPa 0,0 l/m 4,4 km/h (1 Bft) 0,93 h 6,2 km/h (2 Bft)
18.04.2010 14:00 19,5 C 21,9 C 11,8 UV-I 6,0 C 40 % 30 % 100 % 1016,3 hPa 0,0 l/m 4,4 km/h (1 Bft) 0,90 h 7,0 km/h (2 Bft)
18.04.2010 15:00 21,4 C 23,3 C 13,3 UV-I 5,3 C 35 % 27 % 100 % 1016,7 hPa 0,0 l/m 4,8 km/h (1 Bft) 0,93 h 6,6 km/h (2 Bft)
18.04.2010 16:00 22,8 C 23,3 C 11,4 UV-I 4,9 C 33 % 26 % 100 % 1016,7 hPa 0,0 l/m 5,5 km/h (1 Bft) 0,77 h 8,2 km/h (2 Bft)
18.04.2010 17:00 23,1 C 22,9 C 3,5 UV-I 4,1 C 33 % 25 % 98 % 1015,7 hPa 0,0 l/m 5,6 km/h (1 Bft) 0,87 h 7,1 km/h (2 Bft)
18.04.2010 18:00 21,9 C 21,5 C 1,3 UV-I 1,1 C 35 % 27 % 33 % 1013,4 hPa 0,0 l/m 4,0 km/h (1 Bft) 0,00 h 5,1 km/h (1 Bft)
18.04.2010 19:00 21,2 C 19,6 C 0,3 UV-I 0,0 C 35 % 32 % 0 % 1013,1 hPa 0,0 l/m 6,0 km/h (2 Bft) 0,00 h 7,4 km/h (2 Bft)
18.04.2010 20:00 20,5 C 17,4 C 0,0 UV-I 0,0 C 36 % 38 % 0 % 1012,6 hPa 0,0 l/m 3,5 km/h (1 Bft) 0,00 h 4,7 km/h (1 Bft)
18.04.2010 21:00 19,7 C 15,4 C 0,0 UV-I 0,0 C 38 % 46 % 0 % 1012,9 hPa 0,0 l/m 2,5 km/h (1 Bft) 0,00 h 3,6 km/h (1 Bft)
18.04.2010 22:00 19,3 C 13,4 C 0,0 UV-I 0,0 C 39 % 54 % 0 % 1013,6 hPa 0,0 l/m 0,1 km/h (0 Bft) 0,00 h 0,5 km/h (0 Bft)
18.04.2010 23:00 19,0 C 11,9 C 0,0 UV-I 0,0 C 40 % 57 % 0 % 1013,6 hPa 0,0 l/m 2,4 km/h (1 Bft) 0,00 h 3,8 km/h (1 Bft)
Min-Datum _ 12.04.10 17.04.10 12.04.10 12.04.10 17.04.10 18.04.10 12.04.10 18.04.10 - 12.04.10 - 12.04.10
_ Min-Zeit 05:48 06:50 00:00 00:00 16:46 16:32 00:00 20:12 - 01:18 - 00:04
Minimum _ 14,4 C 0,4 C 0,0 UV-I 0,0 C 32 % 25 % 0 % 1012,4 hPa - 0,0 km/h (0 Bft) - 0,0 km/h (0 Bft)
Max-Datum _ 18.04.10 18.04.10 17.04.10 18.04.10 13.04.10 12.04.10 12.04.10 17.04.10 12.04.10 15.04.10 12.04.10 15.04.10
_ Max-Zeit 17:08 15:30 16:10 10:44 08:36 06:54 10:28 14:32 23:46 16:08 07:04 17:20
Maximum _ 23,4 C 23,7 C 14,3 UV-I 11,7 C 53 % 92 % 100 % 1025,8 hPa 0,1 l/m 14,5 km/h
S (3 Bft)
0,03 h 36,9 km/h
S-SW (5 Bft)
Durchschnitt _ 16,8 C 10,3 C 1,8 UV-I 1,7 C 46 % 64 % 32 % 1019,8 hPa #0,1 l/m 4,2 km/h (1 Bft) #39:26 h 5,7 km/h (1 Bft)
© 2012 W. Hausmann